Morning Lady — 3FKC3 — position and weather

sailwx.info

Track history (hours):
 
Tides and Currents Weather Stations Pressure Air Temp Water Temp Dewpoint Dewpoint Depression Visibility Wind Speed Wind Dir Waves Ship Positions

Morning Lady

Last reported at 2017-Nov-05 10:04 UTC. Time now 2017-Nov-19 04:37 UTC.
Position N 36°24' E 014°46'.
Warning: this ship's position is 13 days out of date.

Length 234 m; draft 9.5 m.

Type: Cargo ship. MMSI: 356473000.

Date/timePositionNaut miles runAvg speedWind from/ knotsBaromVisibWave heightAir tempDewpointWater temp
2017-Nov-05 10:04N 36°24' E 014°46'416.3
2017-Nov-05 09:50N 36°25' E 014°41'616.7
2017-Nov-05 09:30N 36°26' E 014°35'816.6
2017-Nov-05 09:00N 36°29' E 014°25'816.5
2017-Nov-05 08:30N 36°32' E 014°16'816.7
2017-Nov-05 08:00N 36°35' E 014°06'816.7
2017-Nov-05 07:30N 36°38' E 013°56'816.3
2017-Nov-05 07:00N 36°41' E 013°46'33715.6
2017-Nov-04 09:20N 37°30' E 006°49'58816.4
2017-Nov-02 21:32N 35°59' W 005°16'117.9
2017-Nov-02 21:30N 35°59' W 005°17'25914.1
2017-Nov-02 03:09N 38°10' W 009°56'216.5
2017-Nov-02 03:00N 38°13' W 009°57'816.5
2017-Nov-02 02:30N 38°21' W 009°59'816.3
2017-Nov-02 02:00N 38°28' W 010°02'816.4
2017-Nov-02 01:30N 38°36' W 010°04'816.2
2017-Nov-02 01:01N 38°44' W 010°06'815.9
2017-Nov-02 00:30N 38°52' W 010°07'816.0
2017-Nov-02 00:01N 39°00' W 010°07'816.1
2017-Nov-01 23:30N 39°08' W 010°07'816.3
2017-Nov-01 23:01N 39°16' W 010°07'816.4
2017-Nov-01 22:30N 39°25' W 010°07'36615.7
2017-Oct-31 23:12N 45°24' W 008°32'1916.0
2017-Oct-31 22:01N 45°40' W 008°19'116.1
2017-Oct-31 21:57N 45°41' W 008°18'2615.8
2017-Oct-31 20:20N 46°04' W 008°01'8016.0
2017-Oct-31 15:19N 47°14' W 007°05'1115.9
2017-Oct-31 14:36N 47°24' W 006°57'215.3
2017-Oct-31 14:28N 47°26' W 006°55'715.6
2017-Oct-31 14:01N 47°32' W 006°50'816.0
2017-Oct-31 13:29N 47°40' W 006°45'815.7
2017-Oct-31 12:58N 47°47' W 006°41'1515.5
2017-Oct-31 12:01N 48°00' W 006°31'1015.3
2017-Oct-31 11:23N 48°09' W 006°24'715.3
2017-Oct-31 10:55N 48°15' W 006°19'715.5
2017-Oct-31 10:28N 48°21' W 006°14'1115.9
2017-Oct-31 09:45N 48°31' W 006°06'517.1
2017-Oct-31 09:27N 48°36' W 006°02'917.3
2017-Oct-31 08:56N 48°44' W 005°56'817.9
2017-Oct-31 08:30N 48°51' W 005°50'917.3
2017-Oct-31 08:00N 48°56' W 005°40'918.0
2017-Oct-31 07:30N 49°01' W 005°28'817.3
2017-Oct-31 07:00N 49°05' W 005°17'817.0
2017-Oct-31 06:30N 49°09' W 005°06'816.8
2017-Oct-31 06:01N 49°14' W 004°55'916.9
2017-Oct-31 05:28N 49°19' W 004°43'816.7
2017-Oct-31 05:01N 49°23' W 004°33'816.5
2017-Oct-31 04:30N 49°27' W 004°23'816.2
2017-Oct-31 03:59N 49°31' W 004°11'815.9
2017-Oct-31 03:29N 49°35' W 004°01'715.7
2017-Oct-31 03:00N 49°39' W 003°51'815.7
2017-Oct-31 02:30N 49°43' W 003°40'815.6
2017-Oct-31 02:00N 49°48' W 003°30'815.7
2017-Oct-31 01:30N 49°51' W 003°20'815.9
2017-Oct-31 01:01N 49°55' W 003°09'816.3
2017-Oct-31 00:30N 49°60' W 002°58'816.7
2017-Oct-31 00:00N 50°02' W 002°46'917.2
2017-Oct-30 23:30N 50°04' W 002°33'917.7
2017-Oct-30 23:00N 50°06' W 002°19'4218.3
2017-Oct-30 20:43N 50°16' W 001°16'1817.2
2017-Oct-30 19:40N 50°21' W 000°48'1416.3
2017-Oct-30 18:47N 50°25' W 000°27'516.0
2017-Oct-30 18:30N 50°26' W 000°20'815.8
2017-Oct-30 18:00N 50°28' W 000°08'815.6
2017-Oct-30 17:31N 50°30' E 000°04'815.4
2017-Oct-30 17:00N 50°32' E 000°15'815.5
2017-Oct-30 16:31N 50°34' E 000°27'815.5
2017-Oct-30 16:01N 50°37' E 000°38'816.1
2017-Oct-30 15:31N 50°42' E 000°48'816.6
2017-Oct-30 15:01N 50°47' E 000°59'1717.2
2017-Oct-30 14:00N 50°59' E 001°18'917.3
2017-Oct-30 13:31N 51°04' E 001°29'917.2
2017-Oct-30 13:01N 51°09' E 001°40'816.7
2017-Oct-30 12:31N 51°16' E 001°49'816.3
2017-Oct-30 12:00N 51°23' E 001°56'816.0
2017-Oct-30 11:31N 51°30' E 002°02'815.8
2017-Oct-30 11:00N 51°36' E 002°10'815.6
2017-Oct-30 10:30N 51°42' E 002°18'11816.1
2017-Oct-30 03:09N 53°11' E 004°26'216.5
2017-Oct-30 03:00N 53°13' E 004°28'1716.2
2017-Oct-30 01:58N 53°28' E 004°39'714.6
2017-Oct-30 01:30N 53°32' E 004°49'815.0
2017-Oct-30 00:59N 53°34' E 005°02'11812.7
2017-Oct-29 15:40N 53°42' E 008°20'212.8
2017-Oct-29 15:30N 53°41' E 008°22'612.7
2017-Oct-29 15:00N 53°36' E 008°30'3 5.7
2017-Oct-29 14:30N 53°34' E 008°33'0 0.6
2017-Oct-29 14:00N 53°34' E 008°33'0 0.8
2017-Oct-29 13:30N 53°35' E 008°33'0 0.0
2017-Oct-29 13:00N 53°35' E 008°33'0 0.0
2017-Oct-29 12:30N 53°35' E 008°33'0 0.0
2017-Oct-29 12:00N 53°35' E 008°33'0 0.0
2017-Oct-29 11:31N 53°35' E 008°33'0 0.0
2017-Oct-29 11:00N 53°35' E 008°33'0 0.0
2017-Oct-29 10:30N 53°35' E 008°33'0 0.0
2017-Oct-29 10:00N 53°35' E 008°33'0 0.0
2017-Oct-29 09:30N 53°35' E 008°33'0 0.0
2017-Oct-29 09:00N 53°35' E 008°33'0 0.0
2017-Oct-29 08:30N 53°35' E 008°33'0 0.0
2017-Oct-29 08:00N 53°35' E 008°33'0 0.0
2017-Oct-29 07:30N 53°35' E 008°33'0 0.0
2017-Oct-29 07:00N 53°35' E 008°33'0 0.0
2017-Oct-29 06:30N 53°35' E 008°33'0 0.0
2017-Oct-29 06:00N 53°35' E 008°33'0 0.0
2017-Oct-29 05:30N 53°35' E 008°33'0 0.0
2017-Oct-29 05:00N 53°35' E 008°33'0 0.0
2017-Oct-29 04:30N 53°35' E 008°33'0 0.0
2017-Oct-29 04:00N 53°35' E 008°33'0 0.0
2017-Oct-28 19:00N 53°35' E 008°33'0 0.0
2017-Oct-28 18:30N 53°35' E 008°33'0 0.0
2017-Oct-28 18:00N 53°35' E 008°33'0 0.0
2017-Oct-28 17:30N 53°35' E 008°33'0 0.0
2017-Oct-28 17:00N 53°35' E 008°33'0 0.0
2017-Oct-28 16:30N 53°35' E 008°33'0 0.0
2017-Oct-28 16:00N 53°35' E 008°33'0 0.0
2017-Oct-28 15:30N 53°35' E 008°33'0 0.0
2017-Oct-28 15:00N 53°35' E 008°33'0 0.0
2017-Oct-28 14:30N 53°35' E 008°33'0 0.0
2017-Oct-28 14:00N 53°35' E 008°33'0 0.0
2017-Oct-28 13:30N 53°35' E 008°33'0 0.0
2017-Oct-28 13:00N 53°35' E 008°33'0 0.0
2017-Oct-28 12:30N 53°35' E 008°33'0 0.0
2017-Oct-28 12:00N 53°35' E 008°33'0 0.0
2017-Oct-28 11:30N 53°35' E 008°33'0 0.0
2017-Oct-28 11:00N 53°35' E 008°33'0 0.0
2017-Oct-28 10:30N 53°35' E 008°33'0 0.0
2017-Oct-28 10:00N 53°35' E 008°33'0 0.0
2017-Oct-28 09:30N 53°35' E 008°33'0 0.0
2017-Oct-28 09:00N 53°35' E 008°33'0 0.0
2017-Oct-28 08:30N 53°35' E 008°33'0 0.0
2017-Oct-28 08:00N 53°35' E 008°33'0 0.0
2017-Oct-28 07:30N 53°35' E 008°33'0 0.0
2017-Oct-28 07:00N 53°35' E 008°33'0 0.0
2017-Oct-28 06:30N 53°35' E 008°33'0 0.0
2017-Oct-28 06:00N 53°35' E 008°33'0 0.0
2017-Oct-28 05:30N 53°35' E 008°33'0 0.0
2017-Oct-28 05:00N 53°35' E 008°33'0 0.0
2017-Oct-28 04:30N 53°35' E 008°33'0 0.0
2017-Oct-28 04:00N 53°35' E 008°33'0 0.0
2017-Oct-28 03:30N 53°35' E 008°33'0 0.0
2017-Oct-28 03:00N 53°35' E 008°33'0 0.0
2017-Oct-28 02:30N 53°35' E 008°33'0 0.0
2017-Oct-28 02:00N 53°35' E 008°33'0 0.0
2017-Oct-28 01:30N 53°35' E 008°33'0 0.0
2017-Oct-28 01:00N 53°35' E 008°33'0 0.0
2017-Oct-28 00:30N 53°35' E 008°33'0 0.0
2017-Oct-28 00:00N 53°35' E 008°33'0 0.0
2017-Oct-27 23:30N 53°35' E 008°33'0 0.0
2017-Oct-27 23:00N 53°35' E 008°33'0 0.0
2017-Oct-27 22:30N 53°35' E 008°33'0 0.0
2017-Oct-27 22:00N 53°35' E 008°33'0 0.0
2017-Oct-27 21:30N 53°35' E 008°33'0 0.0
2017-Oct-27 21:00N 53°35' E 008°33'0 0.0
2017-Oct-27 20:30N 53°35' E 008°33'0 0.0
2017-Oct-27 20:00N 53°35' E 008°33'0 0.0
2017-Oct-27 19:30N 53°35' E 008°33'0 0.0
2017-Oct-27 19:00N 53°35' E 008°33'0 0.0
2017-Oct-27 18:30N 53°35' E 008°33'0 0.0
2017-Oct-27 18:00N 53°35' E 008°33'0 0.0
2017-Oct-27 17:30N 53°35' E 008°33'0 0.0
2017-Oct-27 17:00N 53°35' E 008°33'0 0.0
2017-Oct-27 16:30N 53°35' E 008°33'0 0.0
2017-Oct-27 16:00N 53°35' E 008°33'0 0.0
2017-Oct-27 15:30N 53°35' E 008°33'0 0.0
2017-Oct-27 15:00N 53°35' E 008°33'0 0.0
2017-Oct-27 14:30N 53°35' E 008°33'0 0.0
2017-Oct-27 14:00N 53°35' E 008°33'0 0.0
2017-Oct-27 13:30N 53°35' E 008°33'0 0.0
2017-Oct-27 13:00N 53°35' E 008°33'0 0.0
2017-Oct-27 12:30N 53°35' E 008°33'0 0.0
2017-Oct-27 12:00N 53°35' E 008°33'0 0.0
2017-Oct-27 11:30N 53°35' E 008°33'0 0.0
2017-Oct-27 11:00N 53°35' E 008°33'0 0.0
2017-Oct-27 10:30N 53°35' E 008°33'0 0.0
2017-Oct-27 10:00N 53°35' E 008°33'0 0.0
2017-Oct-27 09:30N 53°35' E 008°33'0 0.0
2017-Oct-27 09:00N 53°35' E 008°33'0 0.0
2017-Oct-27 08:30N 53°35' E 008°33'0 0.0
2017-Oct-27 08:00N 53°35' E 008°33'0 0.0
2017-Oct-27 07:30N 53°35' E 008°33'0 0.0
2017-Oct-27 07:00N 53°35' E 008°33'0 0.0
2017-Oct-27 06:30N 53°35' E 008°33'0 0.0
2017-Oct-27 06:00N 53°35' E 008°33'0 0.0
2017-Oct-27 05:30N 53°35' E 008°33'0 0.0
2017-Oct-27 05:00N 53°35' E 008°33'0 0.0
2017-Oct-27 04:30N 53°35' E 008°33'0 0.0
2017-Oct-27 04:00N 53°35' E 008°33'0 0.0
2017-Oct-27 03:30N 53°35' E 008°33'0 0.5
2017-Oct-27 03:00N 53°34' E 008°33'0 0.6
2017-Oct-27 02:30N 53°34' E 008°33'1 2.7
2017-Oct-27 02:00N 53°35' E 008°31'612.6
2017-Oct-27 01:30N 53°39' E 008°24'815.6
2017-Oct-27 01:00N 53°44' E 008°13'816.3
2017-Oct-27 00:30N 53°50' E 008°04'713.8
2017-Oct-26 23:59N 53°52' E 007°52'713.6
2017-Oct-26 23:29N 53°54' E 007°41'8115.8
2017-Oct-26 18:22N 53°35' E 005°28'616.0
2017-Oct-26 18:00N 53°33' E 005°19'816.0
2017-Oct-26 17:30N 53°30' E 005°06'816.5
2017-Oct-26 17:00N 53°28' E 004°53'816.3
2017-Oct-26 16:30N 53°24' E 004°41'1216.4
2017-Oct-26 15:45N 53°13' E 004°33'416.3
2017-Oct-26 15:30N 53°09' E 004°29'816.5
2017-Oct-26 15:00N 53°02' E 004°23'816.6
2017-Oct-26 14:30N 52°54' E 004°17'816.5
2017-Oct-26 14:00N 52°48' E 004°09'816.8
2017-Oct-26 13:30N 52°41' E 003°60'816.8
2017-Oct-26 13:00N 52°35' E 003°51'816.5
2017-Oct-26 12:30N 52°29' E 003°42'816.4
2017-Oct-26 12:00N 52°23' E 003°33'916.5
2017-Oct-26 11:28N 52°16' E 003°23'816.6
2017-Oct-26 10:59N 52°10' E 003°14'1016.9
2017-Oct-26 10:25N 52°04' E 003°03'  
Track history (hours):
 
Tides and Currents Weather Stations Pressure Air Temp Water Temp Dewpoint Dewpoint Depression Visibility Wind Speed Wind Dir Waves Ship Positions

Morning Lady

Last reported at 2017-Nov-05 10:04 UTC. Time now 2017-Nov-19 04:37 UTC.
Position N 36°24' E 014°46'.
Warning: this ship's position is 13 days out of date.

Length 234 m; draft 9.5 m.

Type: Cargo ship. MMSI: 356473000.

Date/timePositionNaut miles runAvg speedWind from/ knotsBaromVisibWave heightAir tempDewpointWater temp
2017-Nov-05 10:04N 36°24' E 014°46'416.3
2017-Nov-05 09:50N 36°25' E 014°41'616.7
2017-Nov-05 09:30N 36°26' E 014°35'816.6
2017-Nov-05 09:00N 36°29' E 014°25'816.5
2017-Nov-05 08:30N 36°32' E 014°16'816.7
2017-Nov-05 08:00N 36°35' E 014°06'816.7
2017-Nov-05 07:30N 36°38' E 013°56'816.3
2017-Nov-05 07:00N 36°41' E 013°46'33715.6
2017-Nov-04 09:20N 37°30' E 006°49'58816.4
2017-Nov-02 21:32N 35°59' W 005°16'117.9
2017-Nov-02 21:30N 35°59' W 005°17'25914.1
2017-Nov-02 03:09N 38°10' W 009°56'216.5
2017-Nov-02 03:00N 38°13' W 009°57'816.5
2017-Nov-02 02:30N 38°21' W 009°59'816.3
2017-Nov-02 02:00N 38°28' W 010°02'816.4
2017-Nov-02 01:30N 38°36' W 010°04'816.2
2017-Nov-02 01:01N 38°44' W 010°06'815.9
2017-Nov-02 00:30N 38°52' W 010°07'816.0
2017-Nov-02 00:01N 39°00' W 010°07'816.1
2017-Nov-01 23:30N 39°08' W 010°07'816.3
2017-Nov-01 23:01N 39°16' W 010°07'816.4
2017-Nov-01 22:30N 39°25' W 010°07'36615.7
2017-Oct-31 23:12N 45°24' W 008°32'1916.0
2017-Oct-31 22:01N 45°40' W 008°19'116.1
2017-Oct-31 21:57N 45°41' W 008°18'2615.8
2017-Oct-31 20:20N 46°04' W 008°01'8016.0
2017-Oct-31 15:19N 47°14' W 007°05'1115.9
2017-Oct-31 14:36N 47°24' W 006°57'215.3
2017-Oct-31 14:28N 47°26' W 006°55'715.6
2017-Oct-31 14:01N 47°32' W 006°50'816.0
2017-Oct-31 13:29N 47°40' W 006°45'815.7
2017-Oct-31 12:58N 47°47' W 006°41'1515.5
2017-Oct-31 12:01N 48°00' W 006°31'1015.3
2017-Oct-31 11:23N 48°09' W 006°24'715.3
2017-Oct-31 10:55N 48°15' W 006°19'715.5
2017-Oct-31 10:28N 48°21' W 006°14'1115.9
2017-Oct-31 09:45N 48°31' W 006°06'517.1
2017-Oct-31 09:27N 48°36' W 006°02'917.3
2017-Oct-31 08:56N 48°44' W 005°56'817.9
2017-Oct-31 08:30N 48°51' W 005°50'917.3
2017-Oct-31 08:00N 48°56' W 005°40'918.0
2017-Oct-31 07:30N 49°01' W 005°28'817.3
2017-Oct-31 07:00N 49°05' W 005°17'817.0
2017-Oct-31 06:30N 49°09' W 005°06'816.8
2017-Oct-31 06:01N 49°14' W 004°55'916.9
2017-Oct-31 05:28N 49°19' W 004°43'816.7
2017-Oct-31 05:01N 49°23' W 004°33'816.5
2017-Oct-31 04:30N 49°27' W 004°23'816.2
2017-Oct-31 03:59N 49°31' W 004°11'815.9
2017-Oct-31 03:29N 49°35' W 004°01'715.7
2017-Oct-31 03:00N 49°39' W 003°51'815.7
2017-Oct-31 02:30N 49°43' W 003°40'815.6
2017-Oct-31 02:00N 49°48' W 003°30'815.7
2017-Oct-31 01:30N 49°51' W 003°20'815.9
2017-Oct-31 01:01N 49°55' W 003°09'816.3
2017-Oct-31 00:30N 49°60' W 002°58'816.7
2017-Oct-31 00:00N 50°02' W 002°46'917.2
2017-Oct-30 23:30N 50°04' W 002°33'917.7
2017-Oct-30 23:00N 50°06' W 002°19'4218.3
2017-Oct-30 20:43N 50°16' W 001°16'1817.2
2017-Oct-30 19:40N 50°21' W 000°48'1416.3
2017-Oct-30 18:47N 50°25' W 000°27'516.0
2017-Oct-30 18:30N 50°26' W 000°20'815.8
2017-Oct-30 18:00N 50°28' W 000°08'815.6
2017-Oct-30 17:31N 50°30' E 000°04'815.4
2017-Oct-30 17:00N 50°32' E 000°15'815.5
2017-Oct-30 16:31N 50°34' E 000°27'815.5
2017-Oct-30 16:01N 50°37' E 000°38'816.1
2017-Oct-30 15:31N 50°42' E 000°48'816.6
2017-Oct-30 15:01N 50°47' E 000°59'1717.2
2017-Oct-30 14:00N 50°59' E 001°18'917.3
2017-Oct-30 13:31N 51°04' E 001°29'917.2
2017-Oct-30 13:01N 51°09' E 001°40'816.7
2017-Oct-30 12:31N 51°16' E 001°49'816.3
2017-Oct-30 12:00N 51°23' E 001°56'816.0
2017-Oct-30 11:31N 51°30' E 002°02'815.8
2017-Oct-30 11:00N 51°36' E 002°10'815.6
2017-Oct-30 10:30N 51°42' E 002°18'11816.1
2017-Oct-30 03:09N 53°11' E 004°26'216.5
2017-Oct-30 03:00N 53°13' E 004°28'1716.2
2017-Oct-30 01:58N 53°28' E 004°39'714.6
2017-Oct-30 01:30N 53°32' E 004°49'815.0
2017-Oct-30 00:59N 53°34' E 005°02'11812.7
2017-Oct-29 15:40N 53°42' E 008°20'212.8
2017-Oct-29 15:30N 53°41' E 008°22'612.7
2017-Oct-29 15:00N 53°36' E 008°30'3 5.7
2017-Oct-29 14:30N 53°34' E 008°33'0 0.6
2017-Oct-29 14:00N 53°34' E 008°33'0 0.8
2017-Oct-29 13:30N 53°35' E 008°33'0 0.0
2017-Oct-29 13:00N 53°35' E 008°33'0 0.0
2017-Oct-29 12:30N 53°35' E 008°33'0 0.0
2017-Oct-29 12:00N 53°35' E 008°33'0 0.0
2017-Oct-29 11:31N 53°35' E 008°33'0 0.0
2017-Oct-29 11:00N 53°35' E 008°33'0 0.0
2017-Oct-29 10:30N 53°35' E 008°33'0 0.0
2017-Oct-29 10:00N 53°35' E 008°33'0 0.0
2017-Oct-29 09:30N 53°35' E 008°33'0 0.0
2017-Oct-29 09:00N 53°35' E 008°33'0 0.0
2017-Oct-29 08:30N 53°35' E 008°33'0 0.0
2017-Oct-29 08:00N 53°35' E 008°33'0 0.0
2017-Oct-29 07:30N 53°35' E 008°33'0 0.0
2017-Oct-29 07:00N 53°35' E 008°33'0 0.0
2017-Oct-29 06:30N 53°35' E 008°33'0 0.0
2017-Oct-29 06:00N 53°35' E 008°33'0 0.0
2017-Oct-29 05:30N 53°35' E 008°33'0 0.0
2017-Oct-29 05:00N 53°35' E 008°33'0 0.0
2017-Oct-29 04:30N 53°35' E 008°33'0 0.0
2017-Oct-29 04:00N 53°35' E 008°33'0 0.0
2017-Oct-28 19:00N 53°35' E 008°33'0 0.0
2017-Oct-28 18:30N 53°35' E 008°33'0 0.0
2017-Oct-28 18:00N 53°35' E 008°33'0 0.0
2017-Oct-28 17:30N 53°35' E 008°33'0 0.0
2017-Oct-28 17:00N 53°35' E 008°33'0 0.0
2017-Oct-28 16:30N 53°35' E 008°33'0 0.0
2017-Oct-28 16:00N 53°35' E 008°33'0 0.0
2017-Oct-28 15:30N 53°35' E 008°33'0 0.0
2017-Oct-28 15:00N 53°35' E 008°33'0 0.0
2017-Oct-28 14:30N 53°35' E 008°33'0 0.0
2017-Oct-28 14:00N 53°35' E 008°33'0 0.0
2017-Oct-28 13:30N 53°35' E 008°33'0 0.0
2017-Oct-28 13:00N 53°35' E 008°33'0 0.0
2017-Oct-28 12:30N 53°35' E 008°33'0 0.0
2017-Oct-28 12:00N 53°35' E 008°33'0 0.0
2017-Oct-28 11:30N 53°35' E 008°33'0 0.0
2017-Oct-28 11:00N 53°35' E 008°33'0 0.0
2017-Oct-28 10:30N 53°35' E 008°33'0 0.0
2017-Oct-28 10:00N 53°35' E 008°33'0 0.0
2017-Oct-28 09:30N 53°35' E 008°33'0 0.0
2017-Oct-28 09:00N 53°35' E 008°33'0 0.0
2017-Oct-28 08:30N 53°35' E 008°33'0 0.0
2017-Oct-28 08:00N 53°35' E 008°33'0 0.0
2017-Oct-28 07:30N 53°35' E 008°33'0 0.0
2017-Oct-28 07:00N 53°35' E 008°33'0 0.0
2017-Oct-28 06:30N 53°35' E 008°33'0 0.0
2017-Oct-28 06:00N 53°35' E 008°33'0 0.0
2017-Oct-28 05:30N 53°35' E 008°33'0 0.0
2017-Oct-28 05:00N 53°35' E 008°33'0 0.0
2017-Oct-28 04:30N 53°35' E 008°33'0 0.0
2017-Oct-28 04:00N 53°35' E 008°33'0 0.0
2017-Oct-28 03:30N 53°35' E 008°33'0 0.0
2017-Oct-28 03:00N 53°35' E 008°33'0 0.0
2017-Oct-28 02:30N 53°35' E 008°33'0 0.0
2017-Oct-28 02:00N 53°35' E 008°33'0 0.0
2017-Oct-28 01:30N 53°35' E 008°33'0 0.0
2017-Oct-28 01:00N 53°35' E 008°33'0 0.0
2017-Oct-28 00:30N 53°35' E 008°33'0 0.0
2017-Oct-28 00:00N 53°35' E 008°33'0 0.0
2017-Oct-27 23:30N 53°35' E 008°33'0 0.0
2017-Oct-27 23:00N 53°35' E 008°33'0 0.0
2017-Oct-27 22:30N 53°35' E 008°33'0 0.0
2017-Oct-27 22:00N 53°35' E 008°33'0 0.0
2017-Oct-27 21:30N 53°35' E 008°33'0 0.0
2017-Oct-27 21:00N 53°35' E 008°33'0 0.0
2017-Oct-27 20:30N 53°35' E 008°33'0 0.0
2017-Oct-27 20:00N 53°35' E 008°33'0 0.0
2017-Oct-27 19:30N 53°35' E 008°33'0 0.0
2017-Oct-27 19:00N 53°35' E 008°33'0 0.0
2017-Oct-27 18:30N 53°35' E 008°33'0 0.0
2017-Oct-27 18:00N 53°35' E 008°33'0 0.0
2017-Oct-27 17:30N 53°35' E 008°33'0 0.0
2017-Oct-27 17:00N 53°35' E 008°33'0 0.0
2017-Oct-27 16:30N 53°35' E 008°33'0 0.0
2017-Oct-27 16:00N 53°35' E 008°33'0 0.0
2017-Oct-27 15:30N 53°35' E 008°33'0 0.0
2017-Oct-27 15:00N 53°35' E 008°33'0 0.0
2017-Oct-27 14:30N 53°35' E 008°33'0 0.0
2017-Oct-27 14:00N 53°35' E 008°33'0 0.0
2017-Oct-27 13:30N 53°35' E 008°33'0 0.0
2017-Oct-27 13:00N 53°35' E 008°33'0 0.0
2017-Oct-27 12:30N 53°35' E 008°33'0 0.0
2017-Oct-27 12:00N 53°35' E 008°33'0 0.0
2017-Oct-27 11:30N 53°35' E 008°33'0 0.0
2017-Oct-27 11:00N 53°35' E 008°33'0 0.0
2017-Oct-27 10:30N 53°35' E 008°33'0 0.0
2017-Oct-27 10:00N 53°35' E 008°33'0 0.0
2017-Oct-27 09:30N 53°35' E 008°33'0 0.0
2017-Oct-27 09:00N 53°35' E 008°33'0 0.0
2017-Oct-27 08:30N 53°35' E 008°33'0 0.0
2017-Oct-27 08:00N 53°35' E 008°33'0 0.0
2017-Oct-27 07:30N 53°35' E 008°33'0 0.0
2017-Oct-27 07:00N 53°35' E 008°33'0 0.0
2017-Oct-27 06:30N 53°35' E 008°33'0 0.0
2017-Oct-27 06:00N 53°35' E 008°33'0 0.0
2017-Oct-27 05:30N 53°35' E 008°33'0 0.0
2017-Oct-27 05:00N 53°35' E 008°33'0 0.0
2017-Oct-27 04:30N 53°35' E 008°33'0 0.0
2017-Oct-27 04:00N 53°35' E 008°33'0 0.0
2017-Oct-27 03:30N 53°35' E 008°33'0 0.5
2017-Oct-27 03:00N 53°34' E 008°33'0 0.6
2017-Oct-27 02:30N 53°34' E 008°33'1 2.7
2017-Oct-27 02:00N 53°35' E 008°31'612.6
2017-Oct-27 01:30N 53°39' E 008°24'815.6
2017-Oct-27 01:00N 53°44' E 008°13'816.3
2017-Oct-27 00:30N 53°50' E 008°04'713.8
2017-Oct-26 23:59N 53°52' E 007°52'713.6
2017-Oct-26 23:29N 53°54' E 007°41'8115.8
2017-Oct-26 18:22N 53°35' E 005°28'616.0
2017-Oct-26 18:00N 53°33' E 005°19'816.0
2017-Oct-26 17:30N 53°30' E 005°06'816.5
2017-Oct-26 17:00N 53°28' E 004°53'816.3
2017-Oct-26 16:30N 53°24' E 004°41'1216.4
2017-Oct-26 15:45N 53°13' E 004°33'416.3
2017-Oct-26 15:30N 53°09' E 004°29'816.5
2017-Oct-26 15:00N 53°02' E 004°23'816.6
2017-Oct-26 14:30N 52°54' E 004°17'816.5
2017-Oct-26 14:00N 52°48' E 004°09'816.8
2017-Oct-26 13:30N 52°41' E 003°60'816.8
2017-Oct-26 13:00N 52°35' E 003°51'816.5
2017-Oct-26 12:30N 52°29' E 003°42'816.4
2017-Oct-26 12:00N 52°23' E 003°33'916.5
2017-Oct-26 11:28N 52°16' E 003°23'816.6
2017-Oct-26 10:59N 52°10' E 003°14'1016.9
2017-Oct-26 10:25N 52°04' E 003°03'  

Dump ship's entire track history